Weather at Kyaukhtu South Airport

Public forecast

Using degrees Celsius for public forecast. Weather courtesy of forecast.io.

Closest aviation weather report (METAR) to Kyaukhtu South Airport

Report is more than 2 hours old.

Closest report is Mandalay International Airport, 104.7 nm (193.9 km) E. Retrieved 2020/09/23 11:30 UTC (2 hours ago):

VYMD 231130Z 16006KT 7000 BKN020 FEW025CB 32/25 Q1004

Closest aviation forecast (TAF) to Kyaukhtu South Airport

Closest forecast is Mandalay International Airport, 104.7 nm (193.9 km) E. Retrieved 2020/09/23 12:00 UTC (2 hours ago):

TAF VYMD 231100Z 2312/2412 16007KT 7000 BKN020 FEW025CB TEMPO 2312/2318 13008G17KT 5000 -TSRA BKN017 FEW020CB BKN100